createdAt,value
2019-02-07T00:00:35.964Z,66.68
2019-02-07T00:01:35.964Z,67.93
2019-02-07T00:02:36.000Z,66.89
2019-02-07T00:03:35.924Z,66.68
2019-02-07T00:04:36.722Z,66.27
2019-02-07T00:05:35.914Z,66.68
2019-02-07T00:06:35.918Z,66.68
2019-02-07T00:07:35.896Z,66.17
2019-02-07T00:08:35.877Z,66.06
2019-02-07T00:09:35.867Z,65.23
2019-02-07T00:10:35.859Z,66.27
2019-02-07T00:11:35.862Z,66.27
2019-02-07T00:12:35.829Z,66.06
2019-02-07T00:13:35.828Z,65.23
2019-02-07T00:14:39.766Z,65.34
2019-02-07T00:15:36.588Z,65.34
2019-02-07T00:16:35.817Z,65.23
2019-02-07T00:17:35.772Z,65.99
2019-02-07T00:18:35.768Z,65.99
2019-02-07T00:19:35.743Z,65.75
2019-02-07T00:20:35.747Z,65.58
2019-02-07T00:21:35.750Z,65.16
2019-02-07T00:22:35.719Z,65.89
2019-02-07T00:23:35.709Z,65.89
2019-02-07T00:24:42.536Z,65.89
2019-02-07T00:25:36.704Z,65.16
2019-02-07T00:26:35.701Z,65.78
2019-02-07T00:27:35.674Z,65.37
2019-02-07T00:28:35.657Z,65.89
2019-02-07T00:29:35.646Z,65.70
2019-02-07T00:30:35.629Z,65.16
2019-02-07T00:31:35.634Z,65.47
2019-02-07T00:32:35.615Z,65.29
2019-02-07T00:33:35.601Z,65.29
2019-02-07T00:34:35.602Z,65.06
2019-02-07T00:35:35.576Z,65.89
2019-02-07T00:36:35.587Z,65.89
2019-02-07T00:37:35.559Z,65.19
2019-02-07T00:38:35.547Z,66.09
2019-02-07T00:39:35.531Z,65.19
2019-02-07T00:40:35.533Z,65.29
2019-02-07T00:41:35.539Z,65.91
2019-02-07T00:42:35.501Z,65.39
2019-02-07T00:43:35.498Z,65.39
2019-02-07T00:44:35.484Z,65.91
2019-02-07T00:45:35.472Z,65.19
2019-02-07T00:46:35.498Z,65.70
2019-02-07T00:47:35.444Z,65.91
2019-02-07T00:48:35.434Z,65.60
2019-02-07T00:49:35.421Z,64.87
2019-02-07T00:50:35.429Z,64.87
2019-02-07T00:51:35.420Z,65.22
2019-02-07T00:52:35.418Z,65.29
2019-02-07T00:53:35.377Z,65.73
2019-02-07T00:54:35.370Z,65.73
2019-02-07T00:55:35.377Z,65.60
2019-02-07T00:56:35.350Z,65.53
2019-02-07T00:57:35.351Z,65.32
2019-02-07T00:58:35.343Z,65.22
2019-02-07T00:59:35.315Z,64.90
2019-02-07T01:00:35.332Z,64.98
2019-02-07T01:01:35.300Z,65.50
2019-02-07T01:02:35.318Z,64.87
2019-02-07T01:03:35.280Z,65.50
2019-02-07T01:04:35.255Z,65.50
2019-02-07T01:05:35.247Z,64.87
2019-02-07T01:06:35.249Z,63.63
2019-02-07T01:07:35.246Z,63.84
2019-02-07T01:08:35.228Z,64.46
2019-02-07T01:09:35.207Z,64.77
2019-02-07T01:10:35.193Z,64.80
2019-02-07T01:11:35.176Z,63.73
2019-02-07T01:12:35.196Z,63.94
2019-02-07T01:13:35.172Z,63.84
2019-02-07T01:14:35.161Z,64.18
2019-02-07T01:15:35.164Z,64.70
2019-02-07T01:16:35.152Z,64.70
2019-02-07T01:17:35.136Z,64.18
2019-02-07T01:18:35.108Z,64.80
2019-02-07T01:19:35.102Z,65.01
2019-02-07T01:20:35.084Z,64.73
2019-02-07T01:21:35.126Z,65.25
2019-02-07T01:22:35.102Z,65.42
2019-02-07T01:23:35.068Z,64.83
2019-02-07T01:24:35.038Z,64.62
2019-02-07T01:25:35.034Z,64.62
2019-02-07T01:26:35.021Z,64.83
2019-02-07T01:27:35.030Z,65.42
2019-02-07T01:28:34.998Z,65.77
2019-02-07T01:29:34.991Z,65.66
2019-02-07T01:30:34.984Z,65.77
2019-02-07T01:31:34.980Z,65.45
2019-02-07T01:32:34.980Z,65.56
2019-02-07T01:33:34.948Z,65.66
2019-02-07T01:34:34.940Z,65.45
2019-02-07T01:35:34.915Z,65.45
2019-02-07T01:36:34.911Z,65.35
2019-02-07T01:37:34.900Z,65.97
2019-02-07T01:38:34.905Z,66.08
2019-02-07T01:39:34.874Z,65.77
2019-02-07T01:40:34.881Z,65.45
2019-02-07T01:41:34.873Z,65.77
2019-02-07T01:42:34.840Z,65.97
2019-02-07T01:43:34.854Z,65.80
2019-02-07T01:44:34.823Z,65.66
2019-02-07T01:45:34.823Z,66.00
2019-02-07T01:46:34.795Z,65.80
2019-02-07T01:47:34.790Z,65.48
2019-02-07T01:48:34.799Z,65.80
2019-02-07T01:49:34.788Z,66.00
2019-02-07T01:50:34.759Z,65.48
2019-02-07T01:51:34.751Z,66.11
2019-02-07T01:52:34.740Z,65.48
2019-02-07T01:53:34.745Z,65.28
2019-02-07T01:54:34.721Z,65.80
2019-02-07T01:55:34.699Z,65.28
2019-02-07T01:56:34.815Z,65.07
2019-02-07T01:57:34.686Z,65.48
2019-02-07T01:58:34.687Z,65.38
2019-02-07T01:59:34.659Z,65.17
2019-02-07T02:00:34.665Z,65.59
2019-02-07T02:01:34.639Z,65.69
2019-02-07T02:02:34.654Z,65.48
2019-02-07T02:03:34.657Z,65.69
2019-02-07T02:04:34.612Z,65.80
2019-02-07T02:05:34.599Z,65.59
2019-02-07T02:06:34.600Z,65.80
2019-02-07T02:07:34.571Z,66.21
2019-02-07T02:08:34.581Z,65.59
2019-02-07T02:09:34.557Z,65.90
2019-02-07T02:10:34.533Z,65.59
2019-02-07T02:11:34.544Z,65.52
2019-02-07T02:12:34.518Z,66.03
2019-02-07T02:13:34.541Z,66.14
2019-02-07T02:14:34.494Z,65.41
2019-02-07T02:15:34.501Z,65.83
2019-02-07T02:16:34.483Z,65.62
2019-02-07T02:17:34.472Z,65.62
2019-02-07T02:18:34.460Z,65.83
2019-02-07T02:19:34.488Z,65.83
2019-02-07T02:20:34.434Z,65.90
2019-02-07T02:21:34.421Z,65.80
2019-02-07T02:22:34.407Z,65.52
2019-02-07T02:23:34.418Z,65.83
2019-02-07T02:24:34.398Z,65.83
2019-02-07T02:25:34.382Z,65.62
2019-02-07T02:26:34.372Z,65.72
2019-02-07T02:27:34.360Z,65.52
2019-02-07T02:28:34.346Z,65.41
2019-02-07T02:29:34.454Z,65.52
2019-02-07T02:30:34.344Z,65.62
2019-02-07T02:31:34.315Z,65.62
2019-02-07T02:32:34.310Z,65.93
2019-02-07T02:33:34.332Z,65.83
2019-02-07T02:34:34.296Z,65.62
2019-02-07T02:35:34.306Z,65.72
2019-02-07T02:36:34.261Z,65.62
2019-02-07T02:37:34.254Z,65.10
2019-02-07T02:38:34.245Z,65.00
2019-02-07T02:39:34.256Z,66.03
2019-02-07T02:40:34.217Z,65.93
2019-02-07T02:41:34.211Z,65.83
2019-02-07T02:42:34.196Z,65.72
2019-02-07T02:43:34.187Z,65.62
2019-02-07T02:44:34.197Z,65.93
2019-02-07T02:45:37.523Z,65.10
2019-02-07T02:46:34.149Z,65.41
2019-02-07T02:47:34.147Z,65.52
2019-02-07T02:48:34.128Z,65.83
2019-02-07T02:49:34.148Z,65.52
2019-02-07T02:50:34.109Z,65.41
2019-02-07T02:51:34.118Z,65.31
2019-02-07T02:52:34.094Z,66.03
2019-02-07T02:53:34.101Z,65.96
2019-02-07T02:54:34.093Z,65.93
2019-02-07T02:55:34.215Z,65.20
2019-02-07T02:56:34.050Z,66.03
2019-02-07T02:57:34.041Z,65.31
2019-02-07T02:58:34.023Z,66.14
2019-02-07T02:59:34.054Z,66.17
2019-02-07T03:00:33.996Z,65.62
2019-02-07T03:01:33.985Z,65.55
2019-02-07T03:02:33.982Z,65.93
2019-02-07T03:03:33.963Z,65.55
2019-02-07T03:04:33.961Z,65.75
2019-02-07T03:05:33.975Z,65.34
2019-02-07T03:06:33.936Z,65.55
2019-02-07T03:07:33.938Z,65.55
2019-02-07T03:08:33.936Z,65.55
2019-02-07T03:09:34.659Z,66.06
2019-02-07T03:10:33.897Z,65.96
2019-02-07T03:11:33.891Z,65.65
2019-02-07T03:12:33.875Z,65.86
2019-02-07T03:13:33.849Z,65.44
2019-02-07T03:14:33.846Z,66.06
2019-02-07T03:15:33.860Z,65.65
2019-02-07T03:16:33.835Z,65.65
2019-02-07T03:17:33.818Z,65.65
2019-02-07T03:18:33.807Z,65.65
2019-02-07T03:19:33.785Z,65.44
2019-02-07T03:20:33.813Z,65.86
2019-02-07T03:21:33.773Z,65.75
2019-02-07T03:22:33.757Z,65.86
2019-02-07T03:23:33.751Z,65.96
2019-02-07T03:24:33.745Z,66.17
2019-02-07T03:25:33.741Z,65.96
2019-02-07T03:26:33.717Z,65.44
2019-02-07T03:27:33.705Z,65.75
2019-02-07T03:28:33.694Z,65.55
2019-02-07T03:29:33.699Z,65.65
2019-02-07T03:30:33.687Z,65.65
2019-02-07T03:31:33.679Z,65.13
2019-02-07T03:32:33.654Z,65.75
2019-02-07T03:33:33.664Z,65.89
2019-02-07T03:34:33.627Z,65.78
2019-02-07T03:35:33.629Z,66.09
2019-02-07T03:36:33.606Z,65.68
2019-02-07T03:37:33.597Z,66.09
2019-02-07T03:38:33.587Z,65.78
2019-02-07T03:39:33.601Z,65.68
2019-02-07T03:40:33.596Z,65.58
2019-02-07T03:41:33.555Z,65.68
2019-02-07T03:42:33.552Z,65.68
2019-02-07T03:43:33.532Z,65.78
2019-02-07T03:44:33.523Z,65.78
2019-02-07T03:45:33.496Z,66.09
2019-02-07T03:46:33.513Z,65.58
2019-02-07T03:47:33.492Z,65.47
2019-02-07T03:48:33.487Z,65.58
2019-02-07T03:49:33.481Z,65.61
2019-02-07T03:50:33.459Z,65.50
2019-02-07T03:51:33.453Z,66.09
2019-02-07T03:52:33.435Z,66.41
2019-02-07T03:53:33.425Z,66.13
2019-02-07T03:54:33.415Z,66.33
2019-02-07T03:55:33.396Z,66.62
2019-02-07T03:56:33.417Z,65.71
2019-02-07T03:57:33.410Z,66.75
2019-02-07T03:58:33.380Z,66.44
2019-02-07T03:59:33.363Z,66.96
2019-02-07T04:00:33.352Z,66.54
2019-02-07T04:01:33.362Z,66.65
2019-02-07T04:02:33.424Z,66.54
2019-02-07T04:03:33.308Z,67.58
2019-02-07T04:04:33.319Z,67.17
2019-02-07T04:05:33.296Z,66.99
2019-02-07T04:06:33.306Z,67.27
2019-02-07T04:07:33.270Z,67.48
2019-02-07T04:08:33.260Z,67.17
2019-02-07T04:09:33.238Z,67.48
2019-02-07T04:10:33.237Z,67.17
2019-02-07T04:11:33.242Z,67.38
2019-02-07T04:12:33.231Z,67.27
2019-02-07T04:13:33.194Z,67.17
2019-02-07T04:14:33.193Z,66.96
2019-02-07T04:15:33.188Z,67.27
2019-02-07T04:16:33.186Z,67.30
2019-02-07T04:17:33.163Z,68.24
2019-02-07T04:18:33.153Z,68.13
2019-02-07T04:19:33.133Z,67.82
2019-02-07T04:20:33.130Z,67.72
2019-02-07T04:21:33.358Z,67.30
2019-02-07T04:22:33.111Z,67.61
2019-02-07T04:23:33.106Z,67.30
2019-02-07T04:24:33.082Z,67.82
2019-02-07T04:25:33.069Z,68.03
2019-02-07T04:26:33.093Z,67.44
2019-02-07T04:27:33.058Z,67.96
2019-02-07T04:28:33.070Z,68.38
2019-02-07T04:29:33.032Z,67.41
2019-02-07T04:30:33.014Z,67.20
2019-02-07T04:31:33.019Z,67.33
2019-02-07T04:32:33.026Z,67.96
2019-02-07T04:33:32.990Z,67.82
2019-02-07T04:34:32.980Z,68.03
2019-02-07T04:35:32.975Z,68.17
2019-02-07T04:36:32.954Z,68.27
2019-02-07T04:37:32.956Z,67.72
2019-02-07T04:38:32.939Z,67.96
2019-02-07T04:39:32.938Z,68.38
2019-02-07T04:40:32.927Z,68.07
2019-02-07T04:41:32.917Z,68.17
2019-02-07T04:42:32.923Z,67.96
2019-02-07T04:43:32.884Z,67.96
2019-02-07T04:44:32.869Z,67.96
2019-02-07T04:45:32.855Z,67.75
2019-02-07T04:46:32.845Z,68.27
2019-02-07T04:47:32.864Z,67.85
2019-02-07T04:48:32.819Z,68.38
2019-02-07T04:49:32.830Z,68.48
2019-02-07T04:50:32.811Z,68.27
2019-02-07T04:51:32.793Z,68.48
2019-02-07T04:52:32.795Z,68.41
2019-02-07T04:53:32.773Z,68.41
2019-02-07T04:54:32.759Z,68.51
2019-02-07T04:55:32.756Z,68.10
2019-02-07T04:56:32.738Z,68.30
2019-02-07T04:57:32.788Z,68.17
2019-02-07T04:58:32.723Z,67.96
2019-02-07T04:59:32.715Z,67.99
2019-02-07T05:00:32.709Z,67.85
2019-02-07T05:01:32.693Z,68.07
2019-02-07T05:02:32.668Z,68.27
2019-02-07T05:03:32.690Z,67.44
2019-02-07T05:04:32.641Z,67.54
2019-02-07T05:05:32.636Z,67.85
2019-02-07T05:06:32.632Z,67.26
2019-02-07T05:07:32.620Z,67.33
2019-02-07T05:08:32.657Z,67.23
2019-02-07T05:09:32.603Z,68.07
2019-02-07T05:10:32.578Z,67.99
2019-02-07T05:11:32.586Z,67.44
2019-02-07T05:12:32.562Z,67.26
2019-02-07T05:13:32.564Z,67.85
2019-02-07T05:14:32.543Z,67.16
2019-02-07T05:15:32.569Z,68.30
2019-02-07T05:16:39.830Z,68.07
2019-02-07T05:17:33.540Z,67.99
2019-02-07T05:18:32.516Z,67.88
2019-02-07T05:19:32.492Z,67.57
2019-02-07T05:20:32.982Z,67.99
2019-02-07T05:21:32.488Z,68.10
2019-02-07T05:22:32.465Z,67.99
2019-02-07T05:23:32.473Z,67.05
2019-02-07T05:24:32.434Z,67.44
2019-02-07T05:25:32.418Z,67.54
2019-02-07T05:26:32.419Z,67.02
2019-02-07T05:27:34.986Z,67.54
2019-02-07T05:28:32.397Z,66.92
2019-02-07T05:29:32.381Z,67.44
2019-02-07T05:30:32.376Z,67.23
2019-02-07T05:31:32.354Z,66.92
2019-02-07T05:32:32.362Z,67.33
2019-02-07T05:33:32.352Z,67.33
2019-02-07T05:34:32.327Z,67.54
2019-02-07T05:35:32.314Z,67.05
2019-02-07T05:36:32.369Z,67.85
2019-02-07T05:37:32.284Z,67.26
2019-02-07T05:38:32.315Z,67.16
2019-02-07T05:39:32.267Z,67.13
2019-02-07T05:40:32.321Z,67.05
2019-02-07T05:41:32.259Z,67.26
2019-02-07T05:42:32.247Z,67.13
2019-02-07T05:43:32.227Z,66.85
2019-02-07T05:44:32.246Z,67.26
2019-02-07T05:45:32.207Z,67.57
2019-02-07T05:46:32.193Z,67.57
2019-02-07T05:47:32.211Z,67.36
2019-02-07T05:48:32.165Z,67.57
2019-02-07T05:49:32.176Z,67.26
2019-02-07T05:50:32.156Z,67.26
2019-02-07T05:51:32.136Z,67.44
2019-02-07T05:52:32.135Z,67.26
2019-02-07T05:53:32.121Z,67.36
2019-02-07T05:54:32.134Z,67.16
2019-02-07T05:55:32.135Z,66.60
2019-02-07T05:56:32.089Z,66.74
2019-02-07T05:57:32.080Z,66.85
2019-02-07T05:58:32.065Z,66.53
2019-02-07T05:59:32.077Z,67.16
2019-02-07T06:00:32.049Z,66.39
2019-02-07T06:01:32.035Z,66.50
2019-02-07T06:02:32.023Z,66.50
2019-02-07T06:03:32.009Z,66.63
2019-02-07T06:04:32.017Z,66.63
2019-02-07T06:05:31.984Z,65.91
2019-02-07T06:06:31.979Z,66.74
2019-02-07T06:07:31.961Z,66.53
2019-02-07T06:08:32.014Z,66.63
2019-02-07T06:09:31.944Z,66.74
2019-02-07T06:10:31.967Z,66.95
2019-02-07T06:11:31.925Z,66.53
2019-02-07T06:12:31.913Z,66.53
2019-02-07T06:13:31.899Z,66.95
2019-02-07T06:14:31.891Z,67.16
2019-02-07T06:15:31.898Z,66.92
2019-02-07T06:16:31.882Z,66.95
2019-02-07T06:17:31.857Z,66.63
2019-02-07T06:18:31.847Z,66.63
2019-02-07T06:19:31.835Z,66.82
2019-02-07T06:20:31.934Z,65.77
2019-02-07T06:21:31.820Z,66.01
2019-02-07T06:22:31.817Z,65.80
2019-02-07T06:23:31.799Z,65.88
2019-02-07T06:24:31.779Z,66.53
2019-02-07T06:25:31.783Z,65.77
2019-02-07T06:26:31.763Z,65.91
2019-02-07T06:27:31.750Z,65.48
2019-02-07T06:28:31.738Z,65.48
2019-02-07T06:29:31.727Z,65.56
2019-02-07T06:30:31.747Z,65.46
2019-02-07T06:31:31.706Z,66.32
2019-02-07T06:32:31.697Z,66.01
2019-02-07T06:33:31.685Z,65.80
2019-02-07T06:34:31.667Z,65.59
2019-02-07T06:35:31.659Z,66.01
2019-02-07T06:36:31.670Z,65.67
2019-02-07T06:37:31.636Z,65.46
2019-02-07T06:38:31.648Z,65.46
2019-02-07T06:39:31.621Z,66.01
2019-02-07T06:40:31.618Z,65.46
2019-02-07T06:41:31.627Z,66.39
2019-02-07T06:42:31.585Z,65.67
2019-02-07T06:43:31.573Z,65.67
2019-02-07T06:44:31.562Z,65.56
2019-02-07T06:45:31.556Z,65.77
2019-02-07T06:46:31.615Z,65.46
2019-02-07T06:47:31.530Z,66.08
2019-02-07T06:48:31.531Z,66.08
2019-02-07T06:49:31.512Z,65.77
2019-02-07T06:50:31.496Z,65.98
2019-02-07T06:51:31.522Z,65.46
2019-02-07T06:52:31.495Z,65.46
2019-02-07T06:53:31.472Z,65.25
2019-02-07T06:54:31.456Z,65.77
2019-02-07T06:55:31.450Z,65.67
2019-02-07T06:56:31.445Z,65.77
2019-02-07T06:57:31.458Z,65.77
2019-02-07T06:58:31.421Z,65.77
2019-02-07T06:59:31.398Z,65.67
2019-02-07T07:00:31.393Z,65.77
2019-02-07T07:01:31.382Z,65.56
2019-02-07T07:02:31.385Z,65.43
2019-02-07T07:03:31.374Z,65.46
2019-02-07T07:04:31.346Z,65.46
2019-02-07T07:05:31.341Z,65.67
2019-02-07T07:06:31.325Z,65.88
2019-02-07T07:07:31.328Z,65.74
2019-02-07T07:08:31.337Z,65.43
2019-02-07T07:09:31.295Z,65.01
2019-02-07T07:10:31.276Z,65.53
2019-02-07T07:11:31.278Z,64.90
2019-02-07T07:12:31.270Z,65.74
2019-02-07T07:13:31.255Z,65.43
2019-02-07T07:14:31.249Z,65.14
2019-02-07T07:15:31.225Z,65.43
2019-02-07T07:16:31.230Z,65.25
2019-02-07T07:17:31.247Z,65.53
2019-02-07T07:18:31.189Z,65.46
2019-02-07T07:19:31.249Z,65.53
2019-02-07T07:20:31.179Z,65.04
2019-02-07T07:21:31.169Z,65.53
2019-02-07T07:22:31.147Z,65.43
2019-02-07T07:23:31.167Z,64.83
2019-02-07T07:24:31.132Z,64.94
2019-02-07T07:25:31.143Z,65.01
2019-02-07T07:26:31.112Z,65.22
2019-02-07T07:27:31.112Z,64.94
2019-02-07T07:28:31.116Z,65.35
2019-02-07T07:29:31.076Z,65.46
2019-02-07T07:30:31.075Z,65.35
2019-02-07T07:31:31.059Z,65.22
2019-02-07T07:32:31.050Z,65.01
2019-02-07T07:33:31.051Z,65.53
2019-02-07T07:34:31.028Z,65.11
2019-02-07T07:35:31.009Z,65.53
2019-02-07T07:36:30.998Z,64.90
2019-02-07T07:37:31.010Z,65.01
2019-02-07T07:38:31.013Z,64.07
2019-02-07T07:39:30.957Z,64.59
2019-02-07T07:40:30.961Z,64.59
2019-02-07T07:41:30.948Z,64.59
2019-02-07T07:42:30.941Z,64.18
2019-02-07T07:43:30.949Z,64.28
2019-02-07T07:44:30.924Z,64.28
2019-02-07T07:45:30.925Z,63.55
2019-02-07T07:46:30.900Z,64.18
2019-02-07T07:47:36.030Z,64.18
2019-02-07T07:48:31.908Z,63.87
2019-02-07T07:49:30.855Z,64.18
2019-02-07T07:50:30.860Z,64.49
2019-02-07T07:51:30.874Z,64.07
2019-02-07T07:52:30.829Z,64.77
2019-02-07T07:53:30.811Z,63.73
2019-02-07T07:54:30.811Z,64.56
2019-02-07T07:55:30.799Z,64.36
2019-02-07T07:56:30.792Z,64.15
2019-02-07T07:57:30.773Z,64.25
2019-02-07T07:58:30.758Z,64.15
2019-02-07T07:59:30.773Z,64.98
2019-02-07T08:00:30.735Z,64.15
2019-02-07T08:01:30.733Z,63.53
2019-02-07T08:02:30.718Z,63.53
2019-02-07T08:03:30.704Z,64.56
2019-02-07T08:04:30.702Z,64.15
2019-02-07T08:05:30.682Z,63.94
2019-02-07T08:06:30.682Z,64.25
2019-02-07T08:07:30.661Z,64.25
2019-02-07T08:08:30.649Z,64.25
2019-02-07T08:09:30.659Z,64.36
2019-02-07T08:10:30.632Z,64.36
2019-02-07T08:11:30.613Z,64.15
2019-02-07T08:12:30.616Z,63.73
2019-02-07T08:13:30.597Z,63.53
2019-02-07T08:14:30.599Z,63.53
2019-02-07T08:15:30.613Z,63.63
2019-02-07T08:16:30.585Z,64.36
2019-02-07T08:17:30.563Z,63.63
2019-02-07T08:18:30.563Z,64.15
2019-02-07T08:19:30.543Z,64.04
2019-02-07T08:20:30.531Z,63.63
2019-02-07T08:21:30.512Z,63.63
2019-02-07T08:22:30.516Z,63.63
2019-02-07T08:23:30.484Z,63.94
2019-02-07T08:24:30.502Z,64.04
2019-02-07T08:25:30.460Z,64.04
2019-02-07T08:26:30.446Z,63.84
2019-02-07T08:27:30.440Z,63.63
2019-02-07T08:28:30.447Z,64.25
2019-02-07T08:29:30.423Z,63.73
2019-02-07T08:30:36.451Z,63.63
2019-02-07T08:31:31.409Z,63.63
2019-02-07T08:32:30.393Z,63.94
2019-02-07T08:33:30.376Z,63.63
2019-02-07T08:34:30.365Z,63.84
2019-02-07T08:35:30.380Z,63.70
2019-02-07T08:36:30.348Z,63.60
2019-02-07T08:37:30.342Z,63.70
2019-02-07T08:38:30.332Z,63.84
2019-02-07T08:39:30.373Z,63.91
2019-02-07T08:40:30.408Z,64.04
2019-02-07T08:41:30.289Z,63.84
2019-02-07T08:42:30.295Z,64.04
2019-02-07T08:43:30.277Z,64.01
2019-02-07T08:44:30.261Z,63.60
2019-02-07T08:45:30.269Z,63.53
2019-02-07T08:46:30.231Z,64.01
2019-02-07T08:47:30.223Z,64.15
2019-02-07T08:48:30.245Z,63.70
2019-02-07T08:49:30.217Z,63.39
2019-02-07T08:50:30.210Z,63.63
2019-02-07T08:51:30.181Z,63.73
2019-02-07T08:52:30.165Z,63.60
2019-02-07T08:53:30.166Z,64.22
2019-02-07T08:54:30.152Z,63.39
2019-02-07T08:55:30.184Z,63.81
2019-02-07T08:56:30.129Z,63.39
2019-02-07T08:57:30.122Z,63.60
2019-02-07T08:58:30.113Z,63.39
2019-02-07T08:59:30.122Z,63.18
2019-02-07T09:00:30.111Z,63.29
2019-02-07T09:01:30.094Z,63.36
2019-02-07T09:02:30.153Z,62.84
2019-02-07T09:03:30.069Z,63.18
2019-02-07T09:04:30.079Z,63.05
2019-02-07T09:05:30.035Z,63.26
2019-02-07T09:06:30.043Z,63.05
2019-02-07T09:07:32.077Z,62.95
2019-02-07T09:08:29.999Z,62.74
2019-02-07T09:09:30.004Z,63.05
2019-02-07T09:10:29.972Z,63.05
2019-02-07T09:11:29.975Z,62.60
2019-02-07T09:12:29.951Z,63.02
2019-02-07T09:13:29.941Z,61.67
2019-02-07T09:14:29.957Z,62.08
2019-02-07T09:15:29.928Z,61.46
2019-02-07T09:16:29.936Z,61.04
2019-02-07T09:17:29.903Z,61.77
2019-02-07T09:18:29.895Z,61.15
2019-02-07T09:19:29.926Z,62.08
2019-02-07T09:20:29.874Z,60.94
2019-02-07T09:21:29.879Z,60.83
2019-02-07T09:22:29.856Z,61.15
2019-02-07T09:23:29.866Z,61.98
2019-02-07T09:24:29.821Z,61.36
2019-02-07T09:25:34.329Z,61.57
2019-02-07T09:26:29.811Z,61.57
2019-02-07T09:27:29.815Z,60.83
2019-02-07T09:28:29.800Z,61.77
2019-02-07T09:29:29.765Z,61.15
2019-02-07T09:30:29.770Z,61.57
2019-02-07T09:31:29.743Z,61.15
2019-02-07T09:32:29.754Z,61.36
2019-02-07T09:33:29.735Z,61.67
2019-02-07T09:34:29.721Z,61.15
2019-02-07T09:35:29.716Z,61.22
2019-02-07T09:36:29.717Z,61.22
2019-02-07T09:37:29.696Z,60.71
2019-02-07T09:38:29.678Z,61.54
2019-02-07T09:39:29.841Z,61.54
2019-02-07T09:40:29.651Z,61.64
2019-02-07T09:41:29.652Z,61.19
2019-02-07T09:42:29.654Z,60.88
2019-02-07T09:43:30.806Z,60.57
2019-02-07T09:44:29.616Z,59.95
2019-02-07T09:45:29.593Z,59.74
2019-02-07T09:46:29.586Z,59.95
2019-02-07T09:47:29.591Z,60.16
2019-02-07T09:48:29.566Z,59.64
2019-02-07T09:49:29.550Z,59.64
2019-02-07T09:50:29.544Z,60.26
2019-02-07T09:51:29.553Z,59.50
2019-02-07T09:52:29.527Z,59.71
2019-02-07T09:53:29.540Z,59.92
2019-02-07T09:54:29.508Z,58.57
2019-02-07T09:55:29.497Z,59.53
2019-02-07T09:56:29.485Z,59.84
2019-02-07T09:57:29.458Z,59.74
2019-02-07T09:58:29.468Z,59.84
2019-02-07T09:59:29.447Z,59.84
2019-02-07T10:00:29.445Z,60.36
2019-02-07T10:01:29.423Z,60.05
2019-02-07T10:02:29.404Z,59.95
2019-02-07T10:03:29.441Z,60.16
2019-02-07T10:04:29.391Z,60.16
2019-02-07T10:05:29.374Z,60.36
2019-02-07T10:06:29.426Z,60.47
2019-02-07T10:07:29.362Z,60.47
2019-02-07T10:08:29.349Z,60.57
2019-02-07T10:09:29.359Z,60.88
2019-02-07T10:10:29.404Z,60.78
2019-02-07T10:11:29.316Z,60.68
2019-02-07T10:12:29.487Z,61.40
2019-02-07T10:13:29.389Z,61.09
2019-02-07T10:14:29.309Z,61.09
2019-02-07T10:15:29.272Z,60.26
2019-02-07T10:16:29.261Z,60.36
2019-02-07T10:17:29.259Z,60.88
2019-02-07T10:18:33.122Z,60.36
2019-02-07T10:19:29.253Z,60.88
2019-02-07T10:20:29.220Z,60.47
2019-02-07T10:21:29.297Z,60.88
2019-02-07T10:22:29.199Z,60.36
2019-02-07T10:23:29.198Z,59.53
2019-02-07T10:24:29.196Z,59.33
2019-02-07T10:25:29.156Z,59.95
2019-02-07T10:26:29.170Z,59.95
2019-02-07T10:27:29.148Z,59.92
2019-02-07T10:28:29.130Z,59.61
2019-02-07T10:29:29.137Z,58.57
2019-02-07T10:30:29.120Z,58.57
2019-02-07T10:31:29.102Z,58.67
2019-02-07T10:32:29.097Z,58.05
2019-02-07T10:33:29.074Z,57.82
2019-02-07T10:34:29.101Z,58.15
2019-02-07T10:35:29.052Z,58.98
2019-02-07T10:36:29.092Z,58.65
2019-02-07T10:37:29.042Z,58.44
2019-02-07T10:38:29.022Z,58.23
2019-02-07T10:39:29.006Z,57.82
2019-02-07T10:40:29.021Z,58.03
2019-02-07T10:41:31.474Z,58.54
2019-02-07T10:42:29.030Z,57.90
2019-02-07T10:43:28.967Z,57.90
2019-02-07T10:44:28.956Z,57.20
2019-02-07T10:45:28.969Z,57.51
2019-02-07T10:46:28.939Z,56.68
2019-02-07T10:47:30.548Z,56.45
2019-02-07T10:48:28.927Z,56.45
2019-02-07T10:49:28.908Z,55.64
2019-02-07T10:50:28.922Z,56.55
2019-02-07T10:51:28.885Z,56.55
2019-02-07T10:52:28.870Z,55.74
2019-02-07T10:53:28.871Z,55.12
2019-02-07T10:54:28.859Z,55.93
2019-02-07T10:55:28.876Z,55.54
2019-02-07T10:56:28.870Z,56.55
2019-02-07T10:57:28.871Z,55.20
2019-02-07T10:58:28.807Z,55.30
2019-02-07T10:59:28.786Z,55.20
2019-02-07T11:00:28.792Z,56.03
2019-02-07T11:01:28.787Z,54.99
2019-02-07T11:02:28.754Z,55.07
2019-02-07T11:03:28.740Z,55.07
2019-02-07T11:04:28.747Z,55.38
2019-02-07T11:05:28.719Z,55.27
2019-02-07T11:06:28.751Z,55.27
2019-02-07T11:07:28.710Z,55.07
2019-02-07T11:08:28.696Z,55.48
2019-02-07T11:09:28.688Z,55.58
2019-02-07T11:10:28.688Z,55.07
2019-02-07T11:11:28.687Z,54.96
2019-02-07T11:12:28.679Z,55.07
2019-02-07T11:13:28.641Z,55.27
2019-02-07T11:14:28.641Z,55.04
2019-02-07T11:15:28.617Z,55.46
2019-02-07T11:16:28.737Z,54.83
2019-02-07T11:17:28.599Z,54.73
2019-02-07T11:18:28.580Z,54.83
2019-02-07T11:19:28.571Z,54.11
2019-02-07T11:20:28.575Z,54.19
2019-02-07T11:21:28.570Z,54.29
2019-02-07T11:22:28.541Z,53.77
2019-02-07T11:23:28.539Z,53.56
2019-02-07T11:24:28.525Z,53.46
2019-02-07T11:25:28.512Z,53.15
2019-02-07T11:26:28.535Z,52.56
2019-02-07T11:27:28.490Z,53.88
2019-02-07T11:28:28.490Z,53.56
2019-02-07T11:29:28.475Z,54.19
2019-02-07T11:30:28.457Z,53.36
2019-02-07T11:31:28.436Z,53.67
2019-02-07T11:32:28.441Z,52.53
2019-02-07T11:33:28.417Z,52.40
2019-02-07T11:34:28.417Z,52.92
2019-02-07T11:35:28.404Z,53.23
2019-02-07T11:36:28.412Z,52.72
2019-02-07T11:37:28.387Z,52.82
2019-02-07T11:38:28.380Z,52.30
2019-02-07T11:39:29.773Z,52.69
2019-02-07T11:40:28.377Z,52.69
2019-02-07T11:41:28.397Z,52.28
2019-02-07T11:42:28.407Z,52.38
2019-02-07T11:43:28.341Z,52.48
2019-02-07T11:44:28.299Z,52.90
2019-02-07T11:45:28.333Z,53.00
2019-02-07T11:46:28.278Z,52.90
2019-02-07T11:47:28.287Z,52.07
2019-02-07T11:48:28.250Z,51.65
2019-02-07T11:49:28.231Z,51.14
2019-02-07T11:50:28.227Z,51.24
2019-02-07T11:51:28.214Z,51.14
2019-02-07T11:52:28.217Z,51.11
2019-02-07T11:53:28.217Z,50.31
2019-02-07T11:54:28.191Z,51.34
2019-02-07T11:55:28.173Z,51.11
2019-02-07T11:56:28.155Z,50.90
2019-02-07T11:57:28.148Z,50.90
2019-02-07T11:58:28.167Z,51.01
2019-02-07T11:59:28.120Z,50.90
2019-02-07T12:00:28.129Z,50.49
2019-02-07T12:01:28.108Z,50.60
2019-02-07T12:02:28.097Z,50.70
2019-02-07T12:03:28.100Z,50.29
2019-02-07T12:04:28.068Z,50.08
2019-02-07T12:05:28.112Z,50.49
2019-02-07T12:06:28.048Z,50.60
2019-02-07T12:07:28.056Z,50.39
2019-02-07T12:08:28.060Z,50.70
2019-02-07T12:09:28.022Z,50.70
2019-02-07T12:10:27.998Z,49.66
2019-02-07T12:11:28.002Z,50.08
2019-02-07T12:12:27.980Z,49.25
2019-02-07T12:13:27.991Z,49.87
2019-02-07T12:14:27.954Z,49.77
2019-02-07T12:15:27.954Z,49.98
2019-02-07T12:16:27.939Z,49.35
2019-02-07T12:17:27.930Z,49.77
2019-02-07T12:18:27.935Z,49.04
2019-02-07T12:19:27.909Z,48.83
2019-02-07T12:20:27.906Z,48.83
2019-02-07T12:21:27.888Z,48.82
2019-02-07T12:22:27.876Z,49.35
2019-02-07T12:23:27.866Z,49.46
2019-02-07T12:24:27.855Z,49.22
2019-02-07T12:25:27.842Z,49.43
2019-02-07T12:26:27.914Z,49.64
2019-02-07T12:27:27.816Z,49.56
2019-02-07T12:28:27.841Z,49.54
2019-02-07T12:29:27.818Z,49.43
2019-02-07T12:30:27.800Z,49.43
2019-02-07T12:31:27.782Z,48.71
2019-02-07T12:32:27.779Z,49.43
2019-02-07T12:33:27.778Z,48.50
2019-02-07T12:34:27.775Z,48.50
2019-02-07T12:35:27.743Z,48.82
2019-02-07T12:36:27.705Z,48.30
2019-02-07T12:37:27.712Z,48.92
2019-02-07T12:38:27.691Z,48.82
2019-02-07T12:39:27.702Z,48.19
2019-02-07T12:40:27.712Z,49.02
2019-02-07T12:41:27.684Z,48.92
2019-02-07T12:42:27.652Z,48.71
2019-02-07T12:43:27.633Z,49.04
2019-02-07T12:44:27.640Z,48.71
2019-02-07T12:45:27.638Z,48.82
2019-02-07T12:46:27.600Z,48.82
2019-02-07T12:47:27.589Z,48.50
2019-02-07T12:48:27.587Z,49.33
2019-02-07T12:49:29.348Z,48.82
2019-02-07T12:50:27.570Z,48.61
2019-02-07T12:51:27.559Z,48.82
2019-02-07T12:52:27.547Z,48.71